Ana Sayfa
METAR-TAF:

METAR-TAF

Havaalanları :

Sønderborg, Danimarka

Enlem: 54-58N, Boylam: 009-47E, yükseklik: 7 m

Güncel hava durumu gözlemi

Rapor saat 02:20 UTC de 37 dakika önce yapıldı.
Rüzgar güneybatıdan 6 kt, güney/güneybatı ve batı arasında değişken
Sıcaklık 2°C
Nem 93%
Basınç 1003 hPa
Görüş mesafesi 10 km veya daha fazla

METAR: EKSB 280220Z AUTO 23006KT 200V280 9999NDV SCT027/// 02/01 Q1003

Saat: 03:57 (02:57 UTC)

Tahmin

Rapor saat 17:57 UTC de 9 saat ve 0 dakika önce yapıldı.
Ayın 27'si saat 18 UTC'den ayın 27'si saat 23 UTC'ye kadar geçerli Tahmin
Rüzgar güneybatıdan 6 kt
Görüş mesafesi 10 km veya daha fazla
2500 ft yükseklikte parçalı çok bulutlu
Geçici
ayın 27'si saat 18 UTC'den ayın 27'si saat 23 UTC'ye kadar
Görüş mesafesi: 4000 m
1200 ft yükseklikte parçalı çok bulutlu
2000 ft yükseklikte parçalı bulutlu, Kümülonimbus.
sağanak yağmurlar, kar

TAF: EKSB 271757Z 2718/2723 22006KT 9999 BKN025 TEMPO 2718/2723 4000 SHRASN BKN012 SCT020CB

4.000'den fazla havaalanı için hava durumu gözlemleri ve tahminleri (METAR ve TAF raporları).

Kullanılabilir istasyonlar harita üzerinde sarı ve kırmızı noktalarla gösterilir.

İstasyonun adını görmek için fareyi noktanın üzerinde gezdirin.

Sonrasında hava gözlem ve tahminlerini görmek için tıklayın.

Haritayı değiştirmek için: yaklaştırmak için siyah artı işaretli yeşil düğmeye ve uzaklaştırmak için de eksi işaretli düğmeye hızla tıklayın; bitişik haritalar için yeşil okları kullanın.


METAR-TAF: